createdAt,value
2022-12-11T00:01:55.425Z,14.46
2022-12-11T00:04:21.866Z,15.18
2022-12-11T00:06:48.293Z,16.06
2022-12-11T00:09:14.738Z,15.39
2022-12-11T00:11:41.160Z,15.83
2022-12-11T00:14:07.577Z,16.00
2022-12-11T00:16:33.993Z,16.65
2022-12-11T00:19:00.468Z,15.77
2022-12-11T00:21:26.880Z,15.52
2022-12-11T00:23:53.285Z,15.36
2022-12-11T00:26:19.770Z,14.97
2022-12-11T00:28:46.218Z,15.26
2022-12-11T00:31:12.660Z,15.15
2022-12-11T00:33:39.102Z,15.33
2022-12-11T00:36:05.534Z,16.31
2022-12-11T00:38:32.012Z,16.25
2022-12-11T00:40:58.453Z,16.68
2022-12-11T00:43:24.905Z,16.10
2022-12-11T00:45:51.355Z,15.50
2022-12-11T00:48:17.843Z,15.64
2022-12-11T00:50:44.245Z,15.47
2022-12-11T00:53:10.638Z,15.59
2022-12-11T00:55:37.066Z,15.08
2022-12-11T00:58:03.486Z,14.98
2022-12-11T01:00:29.968Z,14.56
2022-12-11T01:02:56.489Z,14.69
2022-12-11T01:05:22.969Z,13.91
2022-12-11T01:07:49.382Z,12.72
2022-12-11T01:10:15.999Z,13.15
2022-12-11T01:12:42.476Z,13.15
2022-12-11T01:15:09.195Z,13.69
2022-12-11T01:17:35.949Z,13.39
2022-12-11T01:20:02.376Z,14.46
2022-12-11T01:22:28.832Z,15.23
2022-12-11T01:24:55.244Z,16.50
2022-12-11T01:27:21.960Z,15.28
2022-12-11T01:29:48.351Z,14.86
2022-12-11T01:32:14.767Z,14.32
2022-12-11T01:34:41.184Z,14.91
2022-12-11T01:37:07.614Z,14.46
2022-12-11T01:39:34.038Z,15.73
2022-12-11T01:42:00.482Z,16.63
2022-12-11T01:44:26.943Z,16.13
2022-12-11T01:46:53.398Z,16.24
2022-12-11T01:49:19.829Z,15.53
2022-12-11T01:51:46.230Z,15.55
2022-12-11T01:54:12.641Z,15.12
2022-12-11T01:56:39.033Z,14.79
2022-12-11T01:59:05.503Z,15.03
2022-12-11T02:01:31.979Z,13.45
2022-12-11T02:03:58.486Z,14.51
2022-12-11T02:06:24.977Z,13.95
2022-12-11T02:08:51.407Z,14.30
2022-12-11T02:11:17.804Z,13.95
2022-12-11T02:13:44.207Z,13.57
2022-12-11T02:16:10.657Z,13.74
2022-12-11T02:18:37.143Z,13.55
2022-12-11T02:21:03.579Z,12.83
2022-12-11T02:23:29.995Z,13.00
2022-12-11T02:25:56.387Z,13.49
2022-12-11T02:28:22.793Z,13.64
2022-12-11T02:30:49.194Z,13.22
2022-12-11T02:33:15.621Z,12.77
2022-12-11T02:35:42.062Z,12.47
2022-12-11T02:38:08.541Z,12.64
2022-12-11T02:40:34.962Z,12.56
2022-12-11T02:43:01.361Z,13.38
2022-12-11T02:45:27.845Z,12.39
2022-12-11T02:47:54.275Z,12.43
2022-12-11T02:50:20.685Z,12.22
2022-12-11T02:52:47.112Z,12.05
2022-12-11T02:55:13.669Z,11.91
2022-12-11T02:57:40.124Z,11.83
2022-12-11T03:00:06.627Z,12.00
2022-12-11T03:02:33.149Z,12.48
2022-12-11T03:04:59.907Z,11.73
2022-12-11T03:07:26.490Z,11.55
2022-12-11T03:09:52.952Z,11.55
2022-12-11T03:12:19.391Z,12.26
2022-12-11T03:14:45.855Z,12.36
2022-12-11T03:17:12.252Z,12.92
2022-12-11T03:19:38.675Z,12.12
2022-12-11T03:22:05.115Z,12.41
2022-12-11T03:24:31.527Z,13.02
2022-12-11T03:27:00.162Z,13.06
2022-12-11T03:29:27.446Z,13.02
2022-12-11T03:31:53.909Z,12.86
2022-12-11T03:34:20.320Z,12.19
2022-12-11T03:36:47.167Z,11.98
2022-12-11T03:39:13.577Z,11.52
2022-12-11T03:41:39.989Z,11.25
2022-12-11T03:44:06.435Z,11.45
2022-12-11T03:46:33.007Z,11.67
2022-12-11T03:48:59.486Z,12.19
2022-12-11T03:51:25.919Z,11.11
2022-12-11T03:53:52.356Z,10.95
2022-12-11T03:56:18.779Z,10.51
2022-12-11T03:58:45.234Z,9.79
2022-12-11T04:01:11.652Z,10.42
2022-12-11T04:03:38.095Z,10.07
2022-12-11T04:06:04.525Z,10.28
2022-12-11T04:08:30.988Z,10.98
2022-12-11T04:10:57.447Z,11.57
2022-12-11T04:13:23.841Z,11.32
2022-12-11T04:15:50.299Z,11.57
2022-12-11T04:18:16.779Z,11.76
2022-12-11T04:20:43.201Z,11.35
2022-12-11T04:23:09.635Z,11.91
2022-12-11T04:25:36.093Z,11.42
2022-12-11T04:28:02.487Z,11.49
2022-12-11T04:30:33.961Z,11.62
2022-12-11T04:33:00.803Z,12.19
2022-12-11T04:35:27.260Z,13.04
2022-12-11T04:37:53.743Z,13.40
2022-12-11T04:40:20.235Z,13.28
2022-12-11T04:42:46.645Z,13.86
2022-12-11T04:45:13.373Z,14.71
2022-12-11T04:47:39.994Z,14.86
2022-12-11T04:50:06.406Z,14.22
2022-12-11T04:52:32.841Z,14.11
2022-12-11T04:54:59.250Z,14.47
2022-12-11T04:57:25.709Z,15.75
2022-12-11T04:59:52.124Z,14.62
2022-12-11T05:02:18.529Z,14.66
2022-12-11T05:04:44.988Z,14.30
2022-12-11T05:07:11.407Z,14.22
2022-12-11T05:09:37.858Z,14.62
2022-12-11T05:12:04.290Z,13.81
2022-12-11T05:14:30.677Z,13.52
2022-12-11T05:16:57.096Z,14.36
2022-12-11T05:19:23.541Z,13.81
2022-12-11T05:21:49.971Z,13.93
2022-12-11T05:24:16.384Z,14.16
2022-12-11T05:26:42.843Z,13.93
2022-12-11T05:29:09.349Z,16.26
2022-12-11T05:31:35.843Z,14.43
2022-12-11T05:34:02.324Z,14.84
2022-12-11T05:36:28.759Z,14.23
2022-12-11T05:38:55.195Z,14.19
2022-12-11T05:41:21.618Z,17.17
2022-12-11T05:43:48.072Z,29.63
2022-12-11T05:46:14.555Z,15.58
2022-12-11T05:48:41.050Z,14.10
2022-12-11T05:51:07.452Z,13.65
2022-12-11T05:53:33.902Z,13.98
2022-12-11T05:56:00.323Z,13.41
2022-12-11T05:58:26.850Z,13.06
2022-12-11T06:00:53.248Z,12.38
2022-12-11T06:03:19.734Z,12.46
2022-12-11T06:05:46.176Z,12.77
2022-12-11T06:08:12.632Z,12.41
2022-12-11T06:10:39.118Z,11.64
2022-12-11T06:13:05.542Z,11.79
2022-12-11T06:15:32.051Z,11.77
2022-12-11T06:17:58.458Z,11.15
2022-12-11T06:20:24.865Z,10.54
2022-12-11T06:22:51.302Z,29.03
2022-12-11T06:25:17.805Z,99.39
2022-12-11T06:27:44.521Z,41.76
2022-12-11T06:30:11.510Z,13.90
2022-12-11T06:32:37.943Z,15.51
2022-12-11T06:35:04.407Z,12.38
2022-12-11T06:37:30.820Z,13.23
2022-12-11T06:39:57.242Z,13.64
2022-12-11T06:42:24.450Z,13.49
2022-12-11T06:44:50.844Z,12.68
2022-12-11T06:47:17.254Z,13.45
2022-12-11T06:49:43.678Z,12.94
2022-12-11T06:52:15.017Z,14.77
2022-12-11T06:54:44.561Z,13.64
2022-12-11T06:57:10.983Z,12.79
2022-12-11T06:59:37.402Z,12.61
2022-12-11T07:02:03.871Z,12.30
2022-12-11T07:04:30.372Z,12.34
2022-12-11T07:06:56.806Z,12.53
2022-12-11T07:09:23.226Z,14.93
2022-12-11T07:11:49.622Z,13.37
2022-12-11T07:14:16.065Z,12.49
2022-12-11T07:16:42.677Z,13.47
2022-12-11T07:19:09.138Z,13.37
2022-12-11T07:21:35.573Z,12.89
2022-12-11T07:24:02.016Z,12.68
2022-12-11T07:26:28.469Z,12.92
2022-12-11T07:28:54.869Z,12.76
2022-12-11T07:31:21.598Z,13.23
2022-12-11T07:33:48.081Z,14.97
2022-12-11T07:36:14.566Z,12.23
2022-12-11T07:38:40.983Z,12.05
2022-12-11T07:41:07.414Z,12.32
2022-12-11T07:43:33.849Z,13.02
2022-12-11T07:46:00.292Z,12.77
2022-12-11T07:48:26.781Z,11.11
2022-12-11T07:50:53.201Z,12.51
2022-12-11T07:53:19.654Z,13.90
2022-12-11T07:55:46.081Z,13.21
2022-12-11T07:58:12.488Z,13.16
2022-12-11T08:00:38.924Z,30.91
2022-12-11T08:03:05.352Z,21.46
2022-12-11T08:05:31.776Z,13.08
2022-12-11T08:07:58.320Z,13.85
2022-12-11T08:10:24.784Z,13.55
2022-12-11T08:12:51.231Z,13.77
2022-12-11T08:15:17.728Z,13.70
2022-12-11T08:17:44.509Z,14.98
2022-12-11T08:20:10.951Z,15.10
2022-12-11T08:22:37.385Z,13.35
2022-12-11T08:25:03.813Z,13.85
2022-12-11T08:27:30.215Z,13.50
2022-12-11T08:29:56.646Z,13.55
2022-12-11T08:32:23.074Z,13.00
2022-12-11T08:34:49.510Z,13.11
2022-12-11T08:37:16.052Z,14.61
2022-12-11T08:39:42.493Z,12.53
2022-12-11T08:42:08.898Z,12.51
2022-12-11T08:44:35.342Z,12.76
2022-12-11T08:47:01.829Z,12.31
2022-12-11T08:49:34.057Z,12.59
2022-12-11T08:52:00.919Z,12.62
2022-12-11T08:54:27.352Z,11.53
2022-12-11T08:56:57.915Z,11.33
2022-12-11T08:59:24.780Z,10.04
2022-12-11T09:01:51.273Z,9.83
2022-12-11T09:04:17.715Z,10.69
2022-12-11T09:06:44.304Z,11.60
2022-12-11T09:09:10.725Z,12.25
2022-12-11T09:11:37.184Z,12.64
2022-12-11T09:14:07.627Z,20.03
2022-12-11T09:16:34.517Z,13.59
2022-12-11T09:19:00.952Z,15.03
2022-12-11T09:21:27.381Z,14.06
2022-12-11T09:23:53.782Z,13.96
2022-12-11T09:26:20.200Z,14.58
2022-12-11T09:28:47.384Z,15.15
2022-12-11T09:31:13.956Z,12.43
2022-12-11T09:33:40.381Z,13.19
2022-12-11T09:36:06.806Z,12.64
2022-12-11T09:38:33.228Z,13.76
2022-12-11T09:40:59.663Z,13.49
2022-12-11T09:43:26.111Z,17.87
2022-12-11T09:45:52.550Z,18.32
2022-12-11T09:48:19.088Z,16.61
2022-12-11T09:50:45.512Z,16.70
2022-12-11T09:53:11.956Z,15.08
2022-12-11T09:55:38.367Z,13.14
2022-12-11T09:58:04.795Z,13.65
2022-12-11T10:00:31.222Z,14.47
2022-12-11T10:02:57.636Z,13.87
2022-12-11T10:05:24.106Z,14.41
2022-12-11T10:07:50.599Z,15.75
2022-12-11T10:10:17.105Z,16.21
2022-12-11T10:12:43.539Z,19.30
2022-12-11T10:15:10.435Z,20.13
2022-12-11T10:17:37.189Z,19.08
2022-12-11T10:20:03.610Z,20.94
2022-12-11T10:22:30.013Z,17.16
2022-12-11T10:25:12.528Z,16.26
2022-12-11T10:27:39.202Z,16.62
2022-12-11T10:30:05.646Z,16.04
2022-12-11T10:32:32.051Z,15.63
2022-12-11T10:34:58.496Z,16.22
2022-12-11T10:37:24.921Z,16.25
2022-12-11T10:39:51.337Z,15.53
2022-12-11T10:42:17.744Z,16.52
2022-12-11T10:44:44.174Z,14.84
2022-12-11T10:47:10.668Z,14.34
2022-12-11T10:49:37.076Z,14.67
2022-12-11T10:52:03.519Z,14.69
2022-12-11T10:54:29.947Z,16.80
2022-12-11T10:56:56.392Z,14.21
2022-12-11T10:59:24.219Z,30.63
2022-12-11T11:01:50.727Z,13.46
2022-12-11T11:04:17.134Z,12.52
2022-12-11T11:06:43.578Z,17.52
2022-12-11T11:09:10.070Z,14.57
2022-12-11T11:11:36.566Z,13.56
2022-12-11T11:14:02.972Z,12.81
2022-12-11T11:16:29.449Z,15.16
2022-12-11T11:18:55.958Z,18.09
2022-12-11T11:21:22.381Z,16.36
2022-12-11T11:23:53.301Z,16.37
2022-12-11T11:26:20.444Z,15.79
2022-12-11T11:28:47.032Z,15.58
2022-12-11T11:31:13.659Z,15.31
2022-12-11T11:33:40.285Z,13.93
2022-12-11T11:36:06.766Z,14.41
2022-12-11T11:38:33.445Z,15.04
2022-12-11T11:41:05.629Z,15.43
2022-12-11T11:43:34.673Z,14.97
2022-12-11T11:46:02.254Z,14.53
2022-12-11T11:48:29.852Z,15.93
2022-12-11T11:50:56.434Z,16.98
2022-12-11T11:53:26.034Z,16.99
2022-12-11T11:55:53.627Z,17.35
2022-12-11T11:58:20.211Z,14.52
2022-12-11T12:00:46.807Z,14.68
2022-12-11T12:03:14.400Z,16.27
2022-12-11T12:05:41.007Z,16.65
2022-12-11T12:08:07.630Z,15.61
2022-12-11T12:10:35.180Z,15.23
2022-12-11T12:13:01.666Z,16.53
2022-12-11T12:15:28.348Z,15.44
2022-12-11T12:17:56.494Z,16.18
2022-12-11T12:20:23.584Z,14.99
2022-12-11T12:22:50.207Z,14.40
2022-12-11T12:25:17.756Z,14.74
2022-12-11T12:27:52.191Z,14.93
2022-12-11T12:30:22.917Z,15.41
2022-12-11T12:32:50.583Z,15.05
2022-12-11T12:35:18.179Z,14.42
2022-12-11T12:37:45.783Z,14.74
2022-12-11T12:40:12.368Z,15.75
2022-12-11T12:42:38.969Z,14.75
2022-12-11T12:45:05.533Z,16.28
2022-12-11T12:47:34.174Z,16.76
2022-12-11T12:50:01.795Z,13.71
2022-12-11T12:52:29.395Z,13.73
2022-12-11T12:54:55.977Z,14.19
2022-12-11T12:57:23.577Z,14.42
2022-12-11T12:59:50.153Z,15.90
2022-12-11T13:02:17.904Z,17.22
2022-12-11T13:04:55.935Z,17.00
2022-12-11T13:07:23.973Z,16.01
2022-12-11T13:09:50.595Z,15.91
2022-12-11T13:12:18.165Z,15.71
2022-12-11T13:14:44.765Z,14.21
2022-12-11T13:17:12.381Z,14.25
2022-12-11T13:19:42.897Z,13.12
2022-12-11T13:22:09.444Z,15.26
2022-12-11T13:24:35.907Z,15.42
2022-12-11T13:27:02.760Z,14.78
2022-12-11T13:29:29.342Z,15.13
2022-12-11T13:31:55.969Z,14.71
2022-12-11T13:34:23.529Z,17.90
2022-12-11T13:36:50.112Z,31.52
2022-12-11T13:39:17.720Z,18.61
2022-12-11T13:41:44.292Z,13.89
2022-12-11T13:44:10.896Z,15.38
2022-12-11T13:46:38.484Z,15.06
2022-12-11T13:49:05.193Z,30.40
2022-12-11T13:51:33.755Z,15.67
2022-12-11T13:54:00.383Z,16.01
2022-12-11T13:56:26.971Z,14.53
2022-12-11T13:58:53.561Z,14.16
2022-12-11T14:01:20.185Z,12.60
2022-12-11T14:03:47.731Z,13.05
2022-12-11T14:06:18.846Z,13.97
2022-12-11T14:08:46.939Z,15.46
2022-12-11T14:11:14.555Z,14.50
2022-12-11T14:13:41.186Z,12.71
2022-12-11T14:16:08.785Z,13.31
2022-12-11T14:18:36.338Z,13.35
2022-12-11T14:21:03.929Z,12.90
2022-12-11T14:23:31.504Z,14.09
2022-12-11T14:26:00.133Z,13.38
2022-12-11T14:28:27.736Z,12.91
2022-12-11T14:30:55.296Z,13.70
2022-12-11T14:33:24.501Z,13.15
2022-12-11T14:35:51.505Z,20.12
2022-12-11T14:38:17.989Z,26.37
2022-12-11T14:40:44.454Z,14.88
2022-12-11T14:43:10.896Z,13.83
2022-12-11T14:45:37.398Z,15.62
2022-12-11T14:48:03.866Z,13.59
2022-12-11T14:50:30.597Z,15.30
2022-12-11T14:52:57.036Z,15.55
2022-12-11T14:55:23.500Z,17.02
2022-12-11T14:57:50.896Z,14.73
2022-12-11T15:00:18.472Z,14.17
2022-12-11T15:02:45.096Z,14.21
2022-12-11T15:05:12.668Z,15.19
2022-12-11T15:07:39.251Z,14.09
2022-12-11T15:10:05.708Z,15.21
2022-12-11T15:12:32.118Z,15.83
2022-12-11T15:14:58.567Z,15.84
2022-12-11T15:17:24.977Z,15.06
2022-12-11T15:19:51.428Z,15.10
2022-12-11T15:22:17.922Z,14.03
2022-12-11T15:24:44.341Z,12.83
2022-12-11T15:27:10.773Z,13.66
2022-12-11T15:29:37.187Z,14.03
2022-12-11T15:32:03.632Z,13.66
2022-12-11T15:34:30.056Z,14.16
2022-12-11T15:36:56.487Z,13.76
2022-12-11T15:39:22.915Z,13.52
2022-12-11T15:41:49.455Z,16.20
2022-12-11T15:44:15.859Z,17.23
2022-12-11T15:46:42.296Z,19.39
2022-12-11T15:49:08.711Z,23.22
2022-12-11T15:51:39.729Z,22.46
2022-12-11T15:54:09.146Z,20.47
2022-12-11T15:56:35.728Z,19.86
2022-12-11T15:59:02.143Z,17.41
2022-12-11T16:01:28.583Z,18.45
2022-12-11T16:03:55.046Z,18.73
2022-12-11T16:06:21.496Z,21.34
2022-12-11T16:08:47.932Z,20.64
2022-12-11T16:11:14.363Z,21.47
2022-12-11T16:13:40.779Z,21.14
2022-12-11T16:16:07.249Z,20.01
2022-12-11T16:18:33.676Z,19.36
2022-12-11T16:21:00.074Z,22.67
2022-12-11T16:23:26.492Z,25.14
2022-12-11T16:25:52.916Z,22.79
2022-12-11T16:28:19.357Z,22.31
2022-12-11T16:30:45.852Z,26.98
2022-12-11T16:33:13.458Z,24.37
2022-12-11T16:35:40.111Z,30.01
2022-12-11T16:38:06.545Z,31.04
2022-12-11T16:40:32.942Z,33.74
2022-12-11T16:42:59.389Z,31.93
2022-12-11T16:45:25.829Z,38.98
2022-12-11T16:47:52.273Z,38.21
2022-12-11T16:50:18.678Z,24.63
2022-12-11T16:52:45.114Z,27.67
2022-12-11T16:55:11.765Z,26.55
2022-12-11T16:57:38.469Z,26.20
2022-12-11T17:00:04.919Z,27.78
2022-12-11T17:02:31.362Z,23.51
2022-12-11T17:04:57.783Z,24.85
2022-12-11T17:07:24.217Z,26.48
2022-12-11T17:09:50.614Z,25.64
2022-12-11T17:12:17.017Z,26.44
2022-12-11T17:14:43.447Z,25.39
2022-12-11T17:17:09.859Z,23.78
2022-12-11T17:19:36.396Z,27.12
2022-12-11T17:22:02.818Z,28.38
2022-12-11T17:24:29.244Z,39.18
2022-12-11T17:26:55.663Z,38.47
2022-12-11T17:29:22.125Z,30.93
2022-12-11T17:31:48.534Z,25.69
2022-12-11T17:34:14.927Z,23.80
2022-12-11T17:36:41.372Z,24.69
2022-12-11T17:39:07.782Z,26.00
2022-12-11T17:41:34.201Z,24.59
2022-12-11T17:44:00.615Z,22.65
2022-12-11T17:46:27.105Z,20.26
2022-12-11T17:48:53.562Z,19.54
2022-12-11T17:51:19.995Z,21.11
2022-12-11T17:53:46.410Z,21.12
2022-12-11T17:56:12.858Z,20.49
2022-12-11T17:58:39.496Z,20.15
2022-12-11T18:01:05.942Z,19.06
2022-12-11T18:03:32.479Z,20.86
2022-12-11T18:05:58.928Z,23.77
2022-12-11T18:08:25.390Z,19.17
2022-12-11T18:10:51.855Z,17.92
2022-12-11T18:13:18.255Z,21.22
2022-12-11T18:15:44.713Z,21.46
2022-12-11T18:18:11.169Z,21.37
2022-12-11T18:20:37.648Z,20.23
2022-12-11T18:23:04.084Z,18.10
2022-12-11T18:25:30.509Z,18.10
2022-12-11T18:27:57.122Z,19.31
2022-12-11T18:30:23.550Z,19.98
2022-12-11T18:32:49.974Z,17.12
2022-12-11T18:35:16.397Z,18.79
2022-12-11T18:37:42.812Z,28.92
2022-12-11T18:40:09.341Z,28.65
2022-12-11T18:42:35.798Z,21.17
2022-12-11T18:45:02.218Z,16.97
2022-12-11T18:47:28.614Z,18.76
2022-12-11T18:49:55.014Z,17.36
2022-12-11T18:52:21.436Z,18.20
2022-12-11T18:54:47.907Z,24.78
2022-12-11T18:57:14.326Z,24.14
2022-12-11T18:59:40.763Z,30.40
2022-12-11T19:02:07.234Z,32.96
2022-12-11T19:04:33.652Z,30.44
2022-12-11T19:07:00.042Z,40.09
2022-12-11T19:09:26.446Z,35.98
2022-12-11T19:11:52.860Z,28.01
2022-12-11T19:14:19.281Z,31.02
2022-12-11T19:16:45.675Z,34.69
2022-12-11T19:19:12.093Z,35.94
2022-12-11T19:21:38.524Z,39.41
2022-12-11T19:24:04.980Z,29.85
2022-12-11T19:26:31.406Z,28.68
2022-12-11T19:28:57.811Z,37.64
2022-12-11T19:31:24.357Z,40.97
2022-12-11T19:33:50.791Z,35.59
2022-12-11T19:36:17.184Z,38.55
2022-12-11T19:38:43.602Z,42.07
2022-12-11T19:41:10.000Z,72.61
2022-12-11T19:43:36.480Z,70.03
2022-12-11T19:46:02.903Z,38.44
2022-12-11T19:48:29.328Z,34.03
2022-12-11T19:50:55.744Z,31.80
2022-12-11T19:53:22.197Z,28.91
2022-12-11T19:55:48.638Z,38.06
2022-12-11T19:58:15.033Z,36.57
2022-12-11T20:00:41.523Z,32.64
2022-12-11T20:03:07.936Z,36.02
2022-12-11T20:05:34.321Z,35.29
2022-12-11T20:08:27.398Z,38.63
2022-12-11T20:10:47.114Z,43.28
2022-12-11T20:13:13.536Z,33.24
2022-12-11T20:15:39.947Z,37.56
2022-12-11T20:18:06.348Z,33.95
2022-12-11T20:20:32.762Z,33.21
2022-12-11T20:22:59.184Z,41.73
2022-12-11T20:25:26.630Z,40.12
2022-12-11T20:27:53.064Z,44.15
2022-12-11T20:30:19.498Z,42.06
2022-12-11T20:32:45.930Z,38.99
2022-12-11T20:35:12.585Z,42.89
2022-12-11T20:37:39.178Z,46.60
2022-12-11T20:40:05.633Z,33.36
2022-12-11T20:42:32.067Z,31.64
2022-12-11T20:44:58.464Z,31.33
2022-12-11T20:47:24.898Z,31.82
2022-12-11T20:49:51.342Z,32.15
2022-12-11T20:52:17.773Z,33.14
2022-12-11T20:54:44.192Z,33.79
2022-12-11T20:57:10.630Z,33.10
2022-12-11T20:59:37.080Z,36.67
2022-12-11T21:02:03.540Z,33.98
2022-12-11T21:04:29.990Z,31.83
2022-12-11T21:06:56.411Z,33.18
2022-12-11T21:09:22.854Z,34.20
2022-12-11T21:11:49.279Z,31.46
2022-12-11T21:14:15.706Z,30.98
2022-12-11T21:16:42.163Z,29.24
2022-12-11T21:19:12.444Z,30.28
2022-12-11T21:21:42.905Z,30.23
2022-12-11T21:24:09.341Z,29.12
2022-12-11T21:26:35.756Z,29.28
2022-12-11T21:29:02.170Z,28.99
2022-12-11T21:31:28.606Z,27.97
2022-12-11T21:33:55.049Z,28.70
2022-12-11T21:36:21.483Z,29.71
2022-12-11T21:38:47.889Z,28.70
2022-12-11T21:41:14.299Z,27.64
2022-12-11T21:44:06.795Z,29.15
2022-12-11T21:46:27.273Z,29.85
2022-12-11T21:48:53.711Z,30.33
2022-12-11T21:51:20.150Z,30.99
2022-12-11T21:53:46.608Z,30.74
2022-12-11T21:56:13.026Z,41.41
2022-12-11T21:58:39.439Z,35.42
2022-12-11T22:01:05.892Z,31.91
2022-12-11T22:03:32.344Z,33.19
2022-12-11T22:05:58.780Z,35.42
2022-12-11T22:08:25.260Z,31.45
2022-12-11T22:10:51.744Z,29.73
2022-12-11T22:13:18.161Z,31.85
2022-12-11T22:15:44.553Z,31.60
2022-12-11T22:18:10.981Z,30.74
2022-12-11T22:20:37.436Z,32.42
2022-12-11T22:23:03.901Z,35.58
2022-12-11T22:25:30.327Z,35.14
2022-12-11T22:27:56.736Z,32.58
2022-12-11T22:30:23.148Z,31.75
2022-12-11T22:32:49.571Z,33.31
2022-12-11T22:35:15.995Z,33.96
2022-12-11T22:37:42.548Z,33.63
2022-12-11T22:40:08.960Z,32.90
2022-12-11T22:42:35.394Z,34.25
2022-12-11T22:45:01.803Z,34.61
2022-12-11T22:47:28.257Z,33.23
2022-12-11T22:49:54.663Z,33.46
2022-12-11T22:52:21.066Z,33.54
2022-12-11T22:54:47.549Z,39.34
2022-12-11T22:57:14.027Z,39.99
2022-12-11T22:59:40.489Z,32.53
2022-12-11T23:02:06.968Z,34.15
2022-12-11T23:04:33.432Z,32.57
2022-12-11T23:06:59.885Z,34.06
2022-12-11T23:09:26.295Z,39.99
2022-12-11T23:11:52.728Z,34.67
2022-12-11T23:14:19.154Z,34.97
2022-12-11T23:16:45.638Z,36.75
2022-12-11T23:19:12.118Z,37.80
2022-12-11T23:21:38.514Z,38.08
2022-12-11T23:24:04.940Z,38.61
2022-12-11T23:26:31.386Z,42.90
2022-12-11T23:28:57.825Z,39.73
2022-12-11T23:31:24.347Z,38.48
2022-12-11T23:33:50.842Z,37.87
2022-12-11T23:36:17.258Z,39.81
2022-12-11T23:38:43.706Z,35.91
2022-12-11T23:41:10.120Z,37.21
2022-12-11T23:43:36.650Z,43.25
2022-12-11T23:46:03.181Z,37.42
2022-12-11T23:48:29.682Z,37.37
2022-12-11T23:50:56.099Z,36.81
2022-12-11T23:53:22.536Z,35.85
2022-12-11T23:55:48.968Z,35.19
2022-12-11T23:58:15.371Z,37.09
